sensor_id;sensor_type;location;lat;lon;timestamp;P1;durP1;ratioP1;P2;durP2;ratioP2
19643;SDS011;9970;-36.854;174.870;2022-12-07T00:00:52;2.50;;;2.50;;
19643;SDS011;9970;-36.854;174.870;2022-12-07T00:03:26;2.53;;;2.53;;
19643;SDS011;9970;-36.854;174.870;2022-12-07T00:05:59;2.50;;;2.50;;
19643;SDS011;9970;-36.854;174.870;2022-12-07T00:08:33;2.60;;;2.60;;
19643;SDS011;9970;-36.854;174.870;2022-12-07T00:13:42;2.30;;;2.30;;
19643;SDS011;9970;-36.854;174.870;2022-12-07T00:16:15;2.40;;;2.40;;
19643;SDS011;9970;-36.854;174.870;2022-12-07T00:18:50;2.60;;;2.60;;
19643;SDS011;9970;-36.854;174.870;2022-12-07T00:21:24;2.50;;;2.50;;
19643;SDS011;9970;-36.854;174.870;2022-12-07T00:23:58;2.50;;;2.50;;
19643;SDS011;9970;-36.854;174.870;2022-12-07T00:26:32;2.47;;;2.47;;
19643;SDS011;9970;-36.854;174.870;2022-12-07T00:29:08;2.50;;;2.50;;
19643;SDS011;9970;-36.854;174.870;2022-12-07T00:31:45;2.40;;;2.40;;
19643;SDS011;9970;-36.854;174.870;2022-12-07T00:34:18;2.60;;;2.60;;
19643;SDS011;9970;-36.854;174.870;2022-12-07T00:36:52;2.50;;;2.50;;
19643;SDS011;9970;-36.854;174.870;2022-12-07T00:39:25;2.40;;;2.40;;
19643;SDS011;9970;-36.854;174.870;2022-12-07T00:42:02;2.30;;;2.30;;
19643;SDS011;9970;-36.854;174.870;2022-12-07T00:44:35;2.40;;;2.40;;
19643;SDS011;9970;-36.854;174.870;2022-12-07T00:47:08;2.40;;;2.40;;
19643;SDS011;9970;-36.854;174.870;2022-12-07T00:49:42;2.40;;;2.40;;
19643;SDS011;9970;-36.854;174.870;2022-12-07T00:52:15;2.47;;;2.47;;
19643;SDS011;9970;-36.854;174.870;2022-12-07T00:54:48;2.50;;;2.50;;
19643;SDS011;9970;-36.854;174.870;2022-12-07T00:57:21;2.63;;;2.63;;
19643;SDS011;9970;-36.854;174.870;2022-12-07T00:59:54;2.60;;;2.60;;
19643;SDS011;9970;-36.854;174.870;2022-12-07T01:02:28;2.60;;;2.60;;
19643;SDS011;9970;-36.854;174.870;2022-12-07T01:05:01;2.50;;;2.50;;
19643;SDS011;9970;-36.854;174.870;2022-12-07T01:07:34;2.50;;;2.50;;
19643;SDS011;9970;-36.854;174.870;2022-12-07T01:10:07;2.40;;;2.40;;
19643;SDS011;9970;-36.854;174.870;2022-12-07T01:12:40;2.30;;;2.30;;
19643;SDS011;9970;-36.854;174.870;2022-12-07T01:15:13;2.70;;;2.70;;
19643;SDS011;9970;-36.854;174.870;2022-12-07T01:17:46;2.80;;;2.80;;
19643;SDS011;9970;-36.854;174.870;2022-12-07T01:20:19;2.60;;;2.60;;
19643;SDS011;9970;-36.854;174.870;2022-12-07T01:22:52;2.40;;;2.40;;
19643;SDS011;9970;-36.854;174.870;2022-12-07T01:25:25;2.50;;;2.50;;
19643;SDS011;9970;-36.854;174.870;2022-12-07T01:27:58;2.30;;;2.30;;
19643;SDS011;9970;-36.854;174.870;2022-12-07T01:30:31;2.10;;;2.10;;
19643;SDS011;9970;-36.854;174.870;2022-12-07T01:33:04;2.20;;;2.20;;
19643;SDS011;9970;-36.854;174.870;2022-12-07T01:35:37;2.20;;;2.20;;
19643;SDS011;9970;-36.854;174.870;2022-12-07T01:38:10;2.30;;;2.30;;
19643;SDS011;9970;-36.854;174.870;2022-12-07T01:40:43;2.43;;;2.43;;
19643;SDS011;9970;-36.854;174.870;2022-12-07T01:43:17;2.40;;;2.40;;
19643;SDS011;9970;-36.854;174.870;2022-12-07T01:45:51;2.30;;;2.30;;
19643;SDS011;9970;-36.854;174.870;2022-12-07T01:48:34;2.30;;;2.30;;
19643;SDS011;9970;-36.854;174.870;2022-12-07T01:51:11;2.20;;;2.20;;
19643;SDS011;9970;-36.854;174.870;2022-12-07T01:53:49;2.30;;;2.30;;
19643;SDS011;9970;-36.854;174.870;2022-12-07T01:56:23;2.20;;;2.20;;
19643;SDS011;9970;-36.854;174.870;2022-12-07T01:58:57;2.33;;;2.33;;
19643;SDS011;9970;-36.854;174.870;2022-12-07T02:01:31;2.40;;;2.40;;
19643;SDS011;9970;-36.854;174.870;2022-12-07T02:04:04;2.40;;;2.40;;
19643;SDS011;9970;-36.854;174.870;2022-12-07T02:06:38;2.40;;;2.40;;
19643;SDS011;9970;-36.854;174.870;2022-12-07T02:09:12;2.50;;;2.50;;
19643;SDS011;9970;-36.854;174.870;2022-12-07T02:11:45;2.40;;;2.40;;
19643;SDS011;9970;-36.854;174.870;2022-12-07T02:14:20;2.40;;;2.40;;
19643;SDS011;9970;-36.854;174.870;2022-12-07T02:19:55;2.30;;;2.30;;
19643;SDS011;9970;-36.854;174.870;2022-12-07T02:28:19;2.30;;;2.30;;
19643;SDS011;9970;-36.854;174.870;2022-12-07T02:31:16;2.30;;;2.30;;
19643;SDS011;9970;-36.854;174.870;2022-12-07T02:33:54;2.40;;;2.40;;
19643;SDS011;9970;-36.854;174.870;2022-12-07T02:36:34;2.50;;;2.50;;
19643;SDS011;9970;-36.854;174.870;2022-12-07T02:39:18;2.40;;;2.40;;
19643;SDS011;9970;-36.854;174.870;2022-12-07T02:41:53;2.40;;;2.40;;
19643;SDS011;9970;-36.854;174.870;2022-12-07T02:44:30;2.30;;;2.30;;
19643;SDS011;9970;-36.854;174.870;2022-12-07T02:47:07;2.20;;;2.20;;
19643;SDS011;9970;-36.854;174.870;2022-12-07T02:49:41;2.00;;;2.00;;
19643;SDS011;9970;-36.854;174.870;2022-12-07T02:52:14;2.10;;;2.10;;
19643;SDS011;9970;-36.854;174.870;2022-12-07T02:54:49;2.07;;;2.07;;
19643;SDS011;9970;-36.854;174.870;2022-12-07T02:57:28;2.10;;;2.10;;
19643;SDS011;9970;-36.854;174.870;2022-12-07T03:00:06;2.30;;;2.30;;
19643;SDS011;9970;-36.854;174.870;2022-12-07T03:03:00;2.23;;;2.23;;
19643;SDS011;9970;-36.854;174.870;2022-12-07T03:11:16;2.10;;;2.10;;
19643;SDS011;9970;-36.854;174.870;2022-12-07T03:14:05;2.10;;;2.10;;
19643;SDS011;9970;-36.854;174.870;2022-12-07T03:19:26;2.10;;;2.10;;
19643;SDS011;9970;-36.854;174.870;2022-12-07T03:22:00;2.20;;;2.20;;
19643;SDS011;9970;-36.854;174.870;2022-12-07T03:24:42;2.30;;;2.30;;
19643;SDS011;9970;-36.854;174.870;2022-12-07T03:27:19;2.20;;;2.20;;
19643;SDS011;9970;-36.854;174.870;2022-12-07T03:30:10;2.30;;;2.30;;
19643;SDS011;9970;-36.854;174.870;2022-12-07T03:32:53;2.13;;;2.13;;
19643;SDS011;9970;-36.854;174.870;2022-12-07T03:35:33;2.30;;;2.30;;
19643;SDS011;9970;-36.854;174.870;2022-12-07T03:38:19;2.20;;;2.20;;
19643;SDS011;9970;-36.854;174.870;2022-12-07T03:43:34;2.20;;;2.20;;
19643;SDS011;9970;-36.854;174.870;2022-12-07T03:46:27;2.27;;;2.27;;
19643;SDS011;9970;-36.854;174.870;2022-12-07T03:49:05;2.00;;;2.00;;
19643;SDS011;9970;-36.854;174.870;2022-12-07T03:51:43;2.20;;;2.20;;
19643;SDS011;9970;-36.854;174.870;2022-12-07T03:54:31;2.20;;;2.20;;
19643;SDS011;9970;-36.854;174.870;2022-12-07T03:57:07;2.10;;;2.10;;
19643;SDS011;9970;-36.854;174.870;2022-12-07T03:59:41;2.20;;;2.20;;
19643;SDS011;9970;-36.854;174.870;2022-12-07T04:02:15;2.20;;;2.20;;
19643;SDS011;9970;-36.854;174.870;2022-12-07T04:04:48;2.20;;;2.20;;
19643;SDS011;9970;-36.854;174.870;2022-12-07T04:07:21;2.23;;;2.23;;
19643;SDS011;9970;-36.854;174.870;2022-12-07T04:09:54;2.10;;;2.10;;
19643;SDS011;9970;-36.854;174.870;2022-12-07T04:12:28;2.10;;;2.10;;
19643;SDS011;9970;-36.854;174.870;2022-12-07T04:15:00;2.10;;;2.10;;
19643;SDS011;9970;-36.854;174.870;2022-12-07T04:17:34;2.00;;;2.00;;
19643;SDS011;9970;-36.854;174.870;2022-12-07T04:20:07;2.10;;;2.10;;
19643;SDS011;9970;-36.854;174.870;2022-12-07T04:22:41;2.00;;;2.00;;
19643;SDS011;9970;-36.854;174.870;2022-12-07T04:25:14;2.20;;;2.20;;
19643;SDS011;9970;-36.854;174.870;2022-12-07T04:27:47;2.10;;;2.10;;
19643;SDS011;9970;-36.854;174.870;2022-12-07T04:30:20;2.10;;;2.10;;
19643;SDS011;9970;-36.854;174.870;2022-12-07T04:32:53;2.10;;;2.10;;
19643;SDS011;9970;-36.854;174.870;2022-12-07T04:35:26;2.10;;;2.10;;
19643;SDS011;9970;-36.854;174.870;2022-12-07T04:37:59;2.00;;;2.00;;
19643;SDS011;9970;-36.854;174.870;2022-12-07T04:40:32;2.00;;;2.00;;
19643;SDS011;9970;-36.854;174.870;2022-12-07T04:43:06;1.90;;;1.90;;
19643;SDS011;9970;-36.854;174.870;2022-12-07T04:45:39;1.90;;;1.90;;
19643;SDS011;9970;-36.854;174.870;2022-12-07T04:48:13;1.80;;;1.80;;
19643;SDS011;9970;-36.854;174.870;2022-12-07T04:50:48;1.87;;;1.87;;
19643;SDS011;9970;-36.854;174.870;2022-12-07T04:53:21;1.90;;;1.90;;
19643;SDS011;9970;-36.854;174.870;2022-12-07T04:55:54;1.80;;;1.80;;
19643;SDS011;9970;-36.854;174.870;2022-12-07T04:58:27;1.70;;;1.70;;
19643;SDS011;9970;-36.854;174.870;2022-12-07T05:01:00;1.80;;;1.80;;
19643;SDS011;9970;-36.854;174.870;2022-12-07T05:03:33;1.60;;;1.60;;
19643;SDS011;9970;-36.854;174.870;2022-12-07T05:06:07;1.60;;;1.60;;
19643;SDS011;9970;-36.854;174.870;2022-12-07T05:08:41;1.60;;;1.60;;
19643;SDS011;9970;-36.854;174.870;2022-12-07T05:11:15;1.67;;;1.67;;
19643;SDS011;9970;-36.854;174.870;2022-12-07T05:14:10;1.70;;;1.70;;
19643;SDS011;9970;-36.854;174.870;2022-12-07T05:16:43;1.60;;;1.60;;
19643;SDS011;9970;-36.854;174.870;2022-12-07T05:19:18;1.60;;;1.60;;
19643;SDS011;9970;-36.854;174.870;2022-12-07T05:21:51;1.70;;;1.70;;
19643;SDS011;9970;-36.854;174.870;2022-12-07T05:24:24;1.53;;;1.53;;
19643;SDS011;9970;-36.854;174.870;2022-12-07T05:26:57;1.60;;;1.60;;
19643;SDS011;9970;-36.854;174.870;2022-12-07T05:29:30;1.70;;;1.70;;
19643;SDS011;9970;-36.854;174.870;2022-12-07T05:32:03;1.60;;;1.60;;
19643;SDS011;9970;-36.854;174.870;2022-12-07T05:34:36;1.60;;;1.60;;
19643;SDS011;9970;-36.854;174.870;2022-12-07T05:37:09;1.70;;;1.70;;
19643;SDS011;9970;-36.854;174.870;2022-12-07T05:39:42;1.60;;;1.60;;
19643;SDS011;9970;-36.854;174.870;2022-12-07T05:42:15;1.50;;;1.50;;
19643;SDS011;9970;-36.854;174.870;2022-12-07T05:44:48;1.50;;;1.50;;
19643;SDS011;9970;-36.854;174.870;2022-12-07T05:47:21;1.60;;;1.60;;
19643;SDS011;9970;-36.854;174.870;2022-12-07T05:49:55;1.50;;;1.50;;
19643;SDS011;9970;-36.854;174.870;2022-12-07T05:52:29;1.50;;;1.50;;
19643;SDS011;9970;-36.854;174.870;2022-12-07T05:55:05;1.50;;;1.50;;
19643;SDS011;9970;-36.854;174.870;2022-12-07T05:57:39;1.50;;;1.50;;
19643;SDS011;9970;-36.854;174.870;2022-12-07T06:00:13;1.50;;;1.50;;
19643;SDS011;9970;-36.854;174.870;2022-12-07T06:02:46;1.50;;;1.50;;
19643;SDS011;9970;-36.854;174.870;2022-12-07T06:05:19;1.50;;;1.50;;
19643;SDS011;9970;-36.854;174.870;2022-12-07T06:07:52;1.60;;;1.60;;
19643;SDS011;9970;-36.854;174.870;2022-12-07T06:10:26;1.50;;;1.50;;
19643;SDS011;9970;-36.854;174.870;2022-12-07T06:12:59;1.60;;;1.60;;
19643;SDS011;9970;-36.854;174.870;2022-12-07T06:15:32;1.50;;;1.50;;
19643;SDS011;9970;-36.854;174.870;2022-12-07T06:18:08;1.50;;;1.50;;
19643;SDS011;9970;-36.854;174.870;2022-12-07T06:20:41;1.60;;;1.60;;
19643;SDS011;9970;-36.854;174.870;2022-12-07T06:23:14;1.50;;;1.50;;
19643;SDS011;9970;-36.854;174.870;2022-12-07T06:25:47;1.60;;;1.60;;
19643;SDS011;9970;-36.854;174.870;2022-12-07T06:28:20;1.60;;;1.60;;
19643;SDS011;9970;-36.854;174.870;2022-12-07T06:30:59;1.60;;;1.60;;
19643;SDS011;9970;-36.854;174.870;2022-12-07T06:33:34;1.60;;;1.60;;
19643;SDS011;9970;-36.854;174.870;2022-12-07T06:36:07;1.60;;;1.60;;
19643;SDS011;9970;-36.854;174.870;2022-12-07T06:38:41;1.70;;;1.70;;
19643;SDS011;9970;-36.854;174.870;2022-12-07T06:41:14;1.60;;;1.60;;
19643;SDS011;9970;-36.854;174.870;2022-12-07T06:43:51;1.60;;;1.60;;
19643;SDS011;9970;-36.854;174.870;2022-12-07T06:46:25;1.63;;;1.63;;
19643;SDS011;9970;-36.854;174.870;2022-12-07T06:48:58;1.60;;;1.60;;
19643;SDS011;9970;-36.854;174.870;2022-12-07T06:51:34;1.70;;;1.70;;
19643;SDS011;9970;-36.854;174.870;2022-12-07T06:54:12;1.60;;;1.60;;
19643;SDS011;9970;-36.854;174.870;2022-12-07T06:56:46;1.60;;;1.60;;
19643;SDS011;9970;-36.854;174.870;2022-12-07T06:59:19;1.67;;;1.67;;
19643;SDS011;9970;-36.854;174.870;2022-12-07T07:01:57;1.60;;;1.60;;
19643;SDS011;9970;-36.854;174.870;2022-12-07T07:04:31;1.70;;;1.70;;
19643;SDS011;9970;-36.854;174.870;2022-12-07T07:07:07;1.60;;;1.60;;
19643;SDS011;9970;-36.854;174.870;2022-12-07T07:09:40;1.60;;;1.60;;
19643;SDS011;9970;-36.854;174.870;2022-12-07T07:12:16;1.70;;;1.70;;
19643;SDS011;9970;-36.854;174.870;2022-12-07T07:14:49;1.60;;;1.60;;
19643;SDS011;9970;-36.854;174.870;2022-12-07T07:17:22;1.60;;;1.60;;
19643;SDS011;9970;-36.854;174.870;2022-12-07T07:19:55;1.50;;;1.50;;
19643;SDS011;9970;-36.854;174.870;2022-12-07T07:22:28;1.50;;;1.50;;
19643;SDS011;9970;-36.854;174.870;2022-12-07T07:25:06;1.60;;;1.60;;
19643;SDS011;9970;-36.854;174.870;2022-12-07T07:27:40;1.50;;;1.50;;
19643;SDS011;9970;-36.854;174.870;2022-12-07T07:30:13;1.60;;;1.60;;
19643;SDS011;9970;-36.854;174.870;2022-12-07T07:32:46;1.50;;;1.50;;
19643;SDS011;9970;-36.854;174.870;2022-12-07T07:35:19;1.40;;;1.40;;
19643;SDS011;9970;-36.854;174.870;2022-12-07T07:37:56;1.40;;;1.40;;
19643;SDS011;9970;-36.854;174.870;2022-12-07T07:40:29;1.40;;;1.40;;
19643;SDS011;9970;-36.854;174.870;2022-12-07T07:43:02;1.40;;;1.40;;
19643;SDS011;9970;-36.854;174.870;2022-12-07T07:45:35;1.40;;;1.40;;
19643;SDS011;9970;-36.854;174.870;2022-12-07T07:48:08;1.50;;;1.50;;
19643;SDS011;9970;-36.854;174.870;2022-12-07T07:50:43;1.50;;;1.50;;
19643;SDS011;9970;-36.854;174.870;2022-12-07T07:53:16;1.40;;;1.40;;
19643;SDS011;9970;-36.854;174.870;2022-12-07T07:55:55;1.40;;;1.40;;
19643;SDS011;9970;-36.854;174.870;2022-12-07T07:58:28;1.60;;;1.60;;
19643;SDS011;9970;-36.854;174.870;2022-12-07T08:01:09;1.70;;;1.70;;
19643;SDS011;9970;-36.854;174.870;2022-12-07T08:03:38;1.70;;;1.70;;
19643;SDS011;9970;-36.854;174.870;2022-12-07T08:06:12;1.60;;;1.60;;
19643;SDS011;9970;-36.854;174.870;2022-12-07T08:08:45;1.60;;;1.60;;
19643;SDS011;9970;-36.854;174.870;2022-12-07T08:11:17;1.60;;;1.60;;
19643;SDS011;9970;-36.854;174.870;2022-12-07T08:13:50;1.60;;;1.60;;
19643;SDS011;9970;-36.854;174.870;2022-12-07T08:16:23;1.60;;;1.60;;
19643;SDS011;9970;-36.854;174.870;2022-12-07T08:18:56;1.50;;;1.50;;
19643;SDS011;9970;-36.854;174.870;2022-12-07T08:21:29;1.70;;;1.70;;
19643;SDS011;9970;-36.854;174.870;2022-12-07T08:24:03;1.50;;;1.50;;
19643;SDS011;9970;-36.854;174.870;2022-12-07T08:26:36;1.40;;;1.40;;
19643;SDS011;9970;-36.854;174.870;2022-12-07T08:29:12;1.60;;;1.60;;
19643;SDS011;9970;-36.854;174.870;2022-12-07T08:31:45;1.60;;;1.60;;
19643;SDS011;9970;-36.854;174.870;2022-12-07T08:34:18;1.50;;;1.50;;
19643;SDS011;9970;-36.854;174.870;2022-12-07T08:36:51;1.40;;;1.40;;
19643;SDS011;9970;-36.854;174.870;2022-12-07T08:39:24;1.50;;;1.50;;
19643;SDS011;9970;-36.854;174.870;2022-12-07T08:41:59;1.40;;;1.40;;
19643;SDS011;9970;-36.854;174.870;2022-12-07T08:44:32;1.50;;;1.50;;
19643;SDS011;9970;-36.854;174.870;2022-12-07T08:47:05;1.40;;;1.40;;
19643;SDS011;9970;-36.854;174.870;2022-12-07T08:49:40;1.40;;;1.40;;
19643;SDS011;9970;-36.854;174.870;2022-12-07T08:52:15;1.40;;;1.40;;
19643;SDS011;9970;-36.854;174.870;2022-12-07T08:54:50;1.40;;;1.40;;
19643;SDS011;9970;-36.854;174.870;2022-12-07T08:57:26;1.47;;;1.47;;
19643;SDS011;9970;-36.854;174.870;2022-12-07T09:00:00;1.50;;;1.50;;
19643;SDS011;9970;-36.854;174.870;2022-12-07T09:02:34;1.60;;;1.60;;
19643;SDS011;9970;-36.854;174.870;2022-12-07T09:05:07;1.50;;;1.50;;
19643;SDS011;9970;-36.854;174.870;2022-12-07T09:07:42;1.50;;;1.50;;
19643;SDS011;9970;-36.854;174.870;2022-12-07T09:10:16;1.40;;;1.40;;
19643;SDS011;9970;-36.854;174.870;2022-12-07T09:12:50;1.30;;;1.30;;
19643;SDS011;9970;-36.854;174.870;2022-12-07T09:15:23;1.40;;;1.40;;
19643;SDS011;9970;-36.854;174.870;2022-12-07T09:17:55;1.40;;;1.40;;
19643;SDS011;9970;-36.854;174.870;2022-12-07T09:20:28;1.37;;;1.37;;
19643;SDS011;9970;-36.854;174.870;2022-12-07T09:23:02;1.30;;;1.30;;
19643;SDS011;9970;-36.854;174.870;2022-12-07T09:25:36;1.40;;;1.40;;
19643;SDS011;9970;-36.854;174.870;2022-12-07T09:28:09;1.40;;;1.40;;
19643;SDS011;9970;-36.854;174.870;2022-12-07T09:30:48;1.40;;;1.40;;
19643;SDS011;9970;-36.854;174.870;2022-12-07T09:33:22;1.40;;;1.40;;
19643;SDS011;9970;-36.854;174.870;2022-12-07T09:35:55;1.30;;;1.30;;
19643;SDS011;9970;-36.854;174.870;2022-12-07T09:38:28;1.43;;;1.43;;
19643;SDS011;9970;-36.854;174.870;2022-12-07T09:41:03;1.40;;;1.40;;
19643;SDS011;9970;-36.854;174.870;2022-12-07T09:43:38;1.40;;;1.40;;
19643;SDS011;9970;-36.854;174.870;2022-12-07T09:46:13;1.33;;;1.33;;
19643;SDS011;9970;-36.854;174.870;2022-12-07T09:48:47;1.40;;;1.40;;
19643;SDS011;9970;-36.854;174.870;2022-12-07T09:51:22;1.30;;;1.30;;
19643;SDS011;9970;-36.854;174.870;2022-12-07T09:53:55;1.30;;;1.30;;
19643;SDS011;9970;-36.854;174.870;2022-12-07T09:56:29;1.20;;;1.20;;
19643;SDS011;9970;-36.854;174.870;2022-12-07T09:59:02;1.20;;;1.20;;
19643;SDS011;9970;-36.854;174.870;2022-12-07T10:01:37;1.30;;;1.30;;
19643;SDS011;9970;-36.854;174.870;2022-12-07T10:04:11;1.33;;;1.33;;
19643;SDS011;9970;-36.854;174.870;2022-12-07T10:06:44;1.40;;;1.40;;
19643;SDS011;9970;-36.854;174.870;2022-12-07T10:09:18;1.50;;;1.50;;
19643;SDS011;9970;-36.854;174.870;2022-12-07T10:11:58;1.40;;;1.40;;
19643;SDS011;9970;-36.854;174.870;2022-12-07T10:14:32;1.50;;;1.50;;
19643;SDS011;9970;-36.854;174.870;2022-12-07T10:22:57;1.30;;;1.30;;
19643;SDS011;9970;-36.854;174.870;2022-12-07T10:25:32;1.47;;;1.47;;
19643;SDS011;9970;-36.854;174.870;2022-12-07T10:31:01;1.50;;;1.50;;
19643;SDS011;9970;-36.854;174.870;2022-12-07T10:33:36;1.40;;;1.40;;
19643;SDS011;9970;-36.854;174.870;2022-12-07T10:39:13;1.40;;;1.40;;
19643;SDS011;9970;-36.854;174.870;2022-12-07T10:41:59;1.50;;;1.50;;
19643;SDS011;9970;-36.854;174.870;2022-12-07T10:44:35;1.40;;;1.40;;
19643;SDS011;9970;-36.854;174.870;2022-12-07T10:47:24;1.40;;;1.40;;
19643;SDS011;9970;-36.854;174.870;2022-12-07T10:53:06;1.40;;;1.40;;
19643;SDS011;9970;-36.854;174.870;2022-12-07T10:55:57;1.30;;;1.30;;
19643;SDS011;9970;-36.854;174.870;2022-12-07T11:04:53;1.30;;;1.30;;
19643;SDS011;9970;-36.854;174.870;2022-12-07T11:07:39;1.30;;;1.30;;
19643;SDS011;9970;-36.854;174.870;2022-12-07T11:10:13;1.20;;;1.20;;
19643;SDS011;9970;-36.854;174.870;2022-12-07T11:35:35;1.20;;;1.20;;
19643;SDS011;9970;-36.854;174.870;2022-12-07T11:38:15;1.27;;;1.27;;
19643;SDS011;9970;-36.854;174.870;2022-12-07T11:40:51;1.30;;;1.30;;
19643;SDS011;9970;-36.854;174.870;2022-12-07T11:43:27;1.30;;;1.30;;
19643;SDS011;9970;-36.854;174.870;2022-12-07T11:48:45;1.20;;;1.20;;
19643;SDS011;9970;-36.854;174.870;2022-12-07T11:51:14;1.20;;;1.20;;
19643;SDS011;9970;-36.854;174.870;2022-12-07T11:53:54;1.20;;;1.20;;
19643;SDS011;9970;-36.854;174.870;2022-12-07T11:56:24;1.20;;;1.20;;
19643;SDS011;9970;-36.854;174.870;2022-12-07T12:07:21;1.20;;;1.20;;
19643;SDS011;9970;-36.854;174.870;2022-12-07T12:15:29;1.20;;;1.20;;
19643;SDS011;9970;-36.854;174.870;2022-12-07T12:20:40;1.20;;;1.20;;
19643;SDS011;9970;-36.854;174.870;2022-12-07T12:23:18;1.20;;;1.20;;
19643;SDS011;9970;-36.854;174.870;2022-12-07T12:25:55;1.30;;;1.30;;
19643;SDS011;9970;-36.854;174.870;2022-12-07T12:28:40;1.20;;;1.20;;
19643;SDS011;9970;-36.854;174.870;2022-12-07T12:36:56;1.10;;;1.10;;
19643;SDS011;9970;-36.854;174.870;2022-12-07T12:39:29;1.20;;;1.20;;
19643;SDS011;9970;-36.854;174.870;2022-12-07T12:42:02;1.20;;;1.20;;
19643;SDS011;9970;-36.854;174.870;2022-12-07T12:50:18;1.00;;;1.00;;
19643;SDS011;9970;-36.854;174.870;2022-12-07T12:53:19;1.20;;;1.20;;
19643;SDS011;9970;-36.854;174.870;2022-12-07T12:56:03;1.00;;;1.00;;
19643;SDS011;9970;-36.854;174.870;2022-12-07T12:58:48;1.10;;;1.10;;
19643;SDS011;9970;-36.854;174.870;2022-12-07T13:01:42;1.00;;;1.00;;
19643;SDS011;9970;-36.854;174.870;2022-12-07T13:06:56;1.00;;;1.00;;
19643;SDS011;9970;-36.854;174.870;2022-12-07T13:09:29;1.00;;;1.00;;
19643;SDS011;9970;-36.854;174.870;2022-12-07T13:12:05;1.00;;;1.00;;
19643;SDS011;9970;-36.854;174.870;2022-12-07T13:14:40;1.10;;;1.10;;
19643;SDS011;9970;-36.854;174.870;2022-12-07T13:20:08;1.00;;;1.00;;
19643;SDS011;9970;-36.854;174.870;2022-12-07T13:22:43;1.00;;;1.00;;
19643;SDS011;9970;-36.854;174.870;2022-12-07T13:28:09;1.00;;;1.00;;
19643;SDS011;9970;-36.854;174.870;2022-12-07T13:33:27;1.00;;;1.00;;
19643;SDS011;9970;-36.854;174.870;2022-12-07T13:36:00;1.10;;;1.10;;
19643;SDS011;9970;-36.854;174.870;2022-12-07T13:38:34;1.00;;;1.00;;
19643;SDS011;9970;-36.854;174.870;2022-12-07T13:41:14;1.00;;;1.00;;
19643;SDS011;9970;-36.854;174.870;2022-12-07T13:43:53;1.00;;;1.00;;
19643;SDS011;9970;-36.854;174.870;2022-12-07T13:49:22;0.90;;;0.90;;
19643;SDS011;9970;-36.854;174.870;2022-12-07T13:51:55;0.90;;;0.90;;
19643;SDS011;9970;-36.854;174.870;2022-12-07T13:54:30;0.90;;;0.90;;
19643;SDS011;9970;-36.854;174.870;2022-12-07T13:57:03;1.00;;;1.00;;
19643;SDS011;9970;-36.854;174.870;2022-12-07T13:59:37;1.00;;;1.00;;
19643;SDS011;9970;-36.854;174.870;2022-12-07T14:02:24;1.00;;;1.00;;
19643;SDS011;9970;-36.854;174.870;2022-12-07T14:05:14;0.90;;;0.90;;
19643;SDS011;9970;-36.854;174.870;2022-12-07T14:08:00;0.90;;;0.90;;
19643;SDS011;9970;-36.854;174.870;2022-12-07T14:10:35;0.90;;;0.90;;
19643;SDS011;9970;-36.854;174.870;2022-12-07T14:16:20;0.90;;;0.90;;
19643;SDS011;9970;-36.854;174.870;2022-12-07T14:18:56;0.97;;;0.97;;
19643;SDS011;9970;-36.854;174.870;2022-12-07T14:21:32;1.00;;;1.00;;
19643;SDS011;9970;-36.854;174.870;2022-12-07T14:26:49;1.00;;;1.00;;
19643;SDS011;9970;-36.854;174.870;2022-12-07T14:29:32;0.90;;;0.90;;
19643;SDS011;9970;-36.854;174.870;2022-12-07T14:31:58;0.90;;;0.90;;
19643;SDS011;9970;-36.854;174.870;2022-12-07T14:37:42;0.90;;;0.90;;
19643;SDS011;9970;-36.854;174.870;2022-12-07T14:40:18;0.90;;;0.90;;
19643;SDS011;9970;-36.854;174.870;2022-12-07T14:43:08;0.90;;;0.90;;
19643;SDS011;9970;-36.854;174.870;2022-12-07T14:45:31;0.90;;;0.90;;
19643;SDS011;9970;-36.854;174.870;2022-12-07T14:48:04;0.90;;;0.90;;
19643;SDS011;9970;-36.854;174.870;2022-12-07T14:50:43;1.00;;;1.00;;
19643;SDS011;9970;-36.854;174.870;2022-12-07T14:53:18;0.80;;;0.80;;
19643;SDS011;9970;-36.854;174.870;2022-12-07T14:55:53;0.87;;;0.87;;
19643;SDS011;9970;-36.854;174.870;2022-12-07T14:58:26;0.90;;;0.90;;
19643;SDS011;9970;-36.854;174.870;2022-12-07T15:00:59;0.90;;;0.90;;
19643;SDS011;9970;-36.854;174.870;2022-12-07T15:03:32;0.90;;;0.90;;
19643;SDS011;9970;-36.854;174.870;2022-12-07T15:06:07;0.90;;;0.90;;
19643;SDS011;9970;-36.854;174.870;2022-12-07T15:08:41;0.90;;;0.90;;
19643;SDS011;9970;-36.854;174.870;2022-12-07T15:11:18;0.90;;;0.90;;
19643;SDS011;9970;-36.854;174.870;2022-12-07T15:13:51;0.90;;;0.90;;
19643;SDS011;9970;-36.854;174.870;2022-12-07T15:16:41;0.90;;;0.90;;
19643;SDS011;9970;-36.854;174.870;2022-12-07T15:19:18;0.90;;;0.90;;
19643;SDS011;9970;-36.854;174.870;2022-12-07T15:21:55;0.90;;;0.90;;
19643;SDS011;9970;-36.854;174.870;2022-12-07T15:24:29;0.80;;;0.80;;
19643;SDS011;9970;-36.854;174.870;2022-12-07T15:27:02;0.90;;;0.90;;
19643;SDS011;9970;-36.854;174.870;2022-12-07T15:29:35;0.90;;;0.90;;
19643;SDS011;9970;-36.854;174.870;2022-12-07T15:32:08;0.90;;;0.90;;
19643;SDS011;9970;-36.854;174.870;2022-12-07T15:34:41;0.80;;;0.80;;
19643;SDS011;9970;-36.854;174.870;2022-12-07T15:37:14;0.80;;;0.80;;
19643;SDS011;9970;-36.854;174.870;2022-12-07T15:40:03;0.80;;;0.80;;
19643;SDS011;9970;-36.854;174.870;2022-12-07T15:42:36;0.90;;;0.90;;
19643;SDS011;9970;-36.854;174.870;2022-12-07T15:45:10;0.90;;;0.90;;
19643;SDS011;9970;-36.854;174.870;2022-12-07T15:47:43;0.80;;;0.80;;
19643;SDS011;9970;-36.854;174.870;2022-12-07T15:50:18;0.80;;;0.80;;
19643;SDS011;9970;-36.854;174.870;2022-12-07T15:52:51;0.80;;;0.80;;
19643;SDS011;9970;-36.854;174.870;2022-12-07T15:55:23;0.80;;;0.80;;
19643;SDS011;9970;-36.854;174.870;2022-12-07T15:57:57;0.80;;;0.80;;
19643;SDS011;9970;-36.854;174.870;2022-12-07T16:00:30;0.90;;;0.90;;
19643;SDS011;9970;-36.854;174.870;2022-12-07T16:03:04;0.80;;;0.80;;
19643;SDS011;9970;-36.854;174.870;2022-12-07T16:05:37;0.80;;;0.80;;
19643;SDS011;9970;-36.854;174.870;2022-12-07T16:08:10;0.80;;;0.80;;
19643;SDS011;9970;-36.854;174.870;2022-12-07T16:10:43;0.80;;;0.80;;
19643;SDS011;9970;-36.854;174.870;2022-12-07T16:13:16;0.80;;;0.80;;
19643;SDS011;9970;-36.854;174.870;2022-12-07T16:15:49;0.80;;;0.80;;
19643;SDS011;9970;-36.854;174.870;2022-12-07T16:18:23;0.80;;;0.80;;
19643;SDS011;9970;-36.854;174.870;2022-12-07T16:20:56;0.80;;;0.80;;
19643;SDS011;9970;-36.854;174.870;2022-12-07T16:23:29;0.80;;;0.80;;
19643;SDS011;9970;-36.854;174.870;2022-12-07T16:26:10;0.80;;;0.80;;
19643;SDS011;9970;-36.854;174.870;2022-12-07T16:28:40;0.90;;;0.90;;
19643;SDS011;9970;-36.854;174.870;2022-12-07T16:31:15;0.87;;;0.87;;
19643;SDS011;9970;-36.854;174.870;2022-12-07T16:33:49;0.80;;;0.80;;
19643;SDS011;9970;-36.854;174.870;2022-12-07T16:36:24;0.80;;;0.80;;
19643;SDS011;9970;-36.854;174.870;2022-12-07T16:38:58;0.80;;;0.80;;
19643;SDS011;9970;-36.854;174.870;2022-12-07T16:41:31;0.80;;;0.80;;
19643;SDS011;9970;-36.854;174.870;2022-12-07T16:44:05;0.90;;;0.90;;
19643;SDS011;9970;-36.854;174.870;2022-12-07T16:46:39;0.80;;;0.80;;
19643;SDS011;9970;-36.854;174.870;2022-12-07T16:49:13;0.80;;;0.80;;
19643;SDS011;9970;-36.854;174.870;2022-12-07T16:51:49;0.90;;;0.90;;
19643;SDS011;9970;-36.854;174.870;2022-12-07T16:54:22;0.80;;;0.80;;
19643;SDS011;9970;-36.854;174.870;2022-12-07T16:56:55;0.80;;;0.80;;
19643;SDS011;9970;-36.854;174.870;2022-12-07T16:59:28;0.83;;;0.83;;
19643;SDS011;9970;-36.854;174.870;2022-12-07T17:02:01;0.87;;;0.87;;
19643;SDS011;9970;-36.854;174.870;2022-12-07T17:04:35;0.80;;;0.80;;
19643;SDS011;9970;-36.854;174.870;2022-12-07T17:07:12;0.80;;;0.80;;